Nearby METAR Reports

 

KMSY - New Orleans,Louisiana, USA
Distance from station: E 11.7mi, 18.8km
Updated: Thu, 09-Apr-2020 7:53pm CDT
Mostly cloudy
Mostly cloudy
 Wind from S
Wind: S 7 mph , 11 km/h
Temperature: 82°F , 28°C
Heat Index: 87°F , 31°C
Dew Point: 73°F , 23°C
Humidity: 74%
Barometer: 29.77 inHg , 1008.1 hPa
Clouds: Mostly cloudy
Visibility: 9 miles , 14 km
Cloud details: Partly cloudy 3500 ft
Mostly cloudy 18000 ft
2020/04/10 00:53 KMSY 100053Z 19006KT 9SM SCT035 BKN180 28/23 A2977 RMK AO2 SLP083 T02780233
KAPS - Reserve,Louisiana, USA
Distance from station: W 8.4mi, 13.5km
Updated: Thu, 09-Apr-2020 8:15pm CDT
Partly cloudy
Partly cloudy
 Wind from calm
Wind: Calm
Temperature: 82°F , 28°C
Heat Index: 86°F , 30°C
Dew Point: 72°F , 22°C
Humidity: 70%
Barometer: 29.77 inHg , 1008.1 hPa
Clouds: Partly cloudy
Visibility: 10 miles , 16 km
Cloud details: Partly cloudy 3100 ft
Partly cloudy 3500 ft
2020/04/10 01:15 KAPS 100115Z AUTO 00000KT 10SM SCT031 SCT035 28/22 A2977 RMK AO2 LTG DSNT W AND NW T02800220
 
KHDC - Hammond,Louisiana, USA
Distance from station: N 31.5mi, 50.6km
Updated: Thu, 09-Apr-2020 8:15pm CDT
Partly cloudy
Partly cloudy
 Wind from calm
Wind: Calm
Temperature: 79°F , 26°C
Dew Point: 72°F , 22°C
Humidity: 79%
Barometer: 29.78 inHg , 1008.5 hPa
Clouds: Partly cloudy
Visibility: 10 miles , 16 km
Cloud details: Partly cloudy 5000 ft
2020/04/10 01:15 KHDC 100115Z AUTO 00000KT 10SM SCT050 26/22 A2978 RMK AO2 LTG DSNT W AND NW
KHUM - Houma,Louisiana, USA
Distance from station: SW 36.54mi, 58.8km
Updated: Thu, 09-Apr-2020 8:15pm CDT
Overcast
Overcast
 Wind from SSW
Wind: SSW 5 mph , 7 km/h
Temperature: 77°F , 25°C
Dew Point: 73°F , 23°C
Humidity: 89%
Barometer: 29.80 inHg , 1009.1 hPa
Clouds: Overcast
Visibility: 7 miles , 11 km
Cloud details: Partly cloudy 1500 ft
Overcast 2600 ft
2020/04/10 01:15 KHUM 100115Z AUTO 21004KT 7SM SCT015 OVC026 25/23 A2980 RMK AO2 LTG DSNT NW T02510228